Time;durP1;ratioP1;P1;durP2;ratioP2;P2;SDS_P1;SDS_P2;PMS_P1;PMS_P2;Temp;Humidity;BMP_temperature;BMP_pressure;BME280_temperature;BME280_humidity;BME280_pressure;Samples;Min_cycle;Max_cycle;Signal;HPM_P1;HPM_P2
2023/10/28 06:24:09;;;;;;;0.20;0.20;;;;;;;17.47;100.00;100657.56;2581130;22;1335018;-67
2023/10/28 06:25:09;;;;;;;0.33;0.30;;;;;;;17.51;100.00;100660.19;2604547;22;20753;-67
2023/10/28 06:26:10;;;;;;;0.70;0.40;;;;;;;16.44;100.00;100482.03;2605426;22;20182;-67
2023/10/28 06:27:10;;;;;;;1.00;0.40;;;;;;;17.57;100.00;100650.63;2597421;22;20150;-67
2023/10/28 06:28:11;;;;;;;0.30;0.30;;;;;;;17.60;100.00;100655.25;2604672;22;20165;-66
2023/10/28 06:29:12;;;;;;;0.40;0.30;;;;;;;17.64;100.00;100655.84;2605567;22;20157;-67
2023/10/28 06:30:14;;;;;;;0.60;0.37;;;;;;;17.21;100.00;100580.84;2607251;22;20153;-67
2023/10/28 06:31:15;;;;;;;0.63;0.50;;;;;;;17.26;100.00;100580.19;2606639;22;20881;-67
2023/10/28 06:32:15;;;;;;;0.70;0.40;;;;;;;17.44;100.00;100610.88;2606215;22;20696;-67
2023/10/28 06:33:16;;;;;;;2.30;0.50;;;;;;;17.80;100.00;100643.44;2606289;22;20462;-67
2023/10/28 06:34:17;;;;;;;0.73;0.37;;;;;;;17.81;100.00;100645.72;2606300;22;20181;-68
2023/10/28 06:35:18;;;;;;;0.40;0.30;;;;;;;17.45;100.00;100580.84;2605350;22;20380;-67
2023/10/28 06:36:19;;;;;;;0.40;0.37;;;;;;;17.49;100.00;100570.25;2606657;22;20595;-67
2023/10/28 06:37:20;;;;;;;0.40;0.30;;;;;;;17.91;100.00;100638.78;2607274;22;20791;-67
2023/10/28 06:38:21;;;;;;;0.87;0.37;;;;;;;17.86;100.00;100642.25;2604935;22;20153;-66
2023/10/28 06:39:21;;;;;;;0.30;0.30;;;;;;;17.91;100.00;100647.19;2605998;22;20379;-66
2023/10/28 06:40:22;;;;;;;0.83;0.50;;;;;;;17.81;100.00;100626.13;2606134;22;20175;-66
2023/10/28 06:41:22;;;;;;;0.47;0.30;;;;;;;17.77;100.00;100619.16;2601386;22;20221;-66
2023/10/28 06:42:23;;;;;;;0.53;0.43;;;;;;;16.80;100.00;100461.44;2604680;22;20146;-67
2023/10/28 06:43:24;;;;;;;0.87;0.40;;;;;;;18.11;100.00;100652.16;2603818;22;20562;-66
2023/10/28 06:44:24;;;;;;;0.70;0.30;;;;;;;18.16;100.00;100657.09;2579433;22;20440;-66
2023/10/28 06:45:25;;;;;;;0.20;0.20;;;;;;;18.12;100.00;100639.69;2590721;22;20154;-66
2023/10/28 06:46:25;;;;;;;0.97;0.27;;;;;;;18.23;100.00;100656.69;2591481;22;20572;-66
2023/10/28 06:47:26;;;;;;;0.50;0.30;;;;;;;17.92;100.00;100615.88;2598770;22;20151;-67
2023/10/28 06:48:26;;;;;;;2.27;0.20;;;;;;;18.33;100.00;100675.00;2601122;22;20173;-67
2023/10/28 06:49:27;;;;;;;0.77;0.40;;;;;;;18.22;100.00;100641.88;2601334;22;20259;-67
2023/10/28 06:50:27;;;;;;;0.70;0.40;;;;;;;17.89;100.00;100590.84;2602908;22;20207;-67
2023/10/28 06:51:27;;;;;;;0.40;0.23;;;;;;;18.40;100.00;100664.19;2599753;22;20157;-67
2023/10/28 06:52:28;;;;;;;0.70;0.40;;;;;;;18.46;100.00;100667.06;2598683;22;20177;-66
2023/10/28 06:53:28;;;;;;;0.40;0.40;;;;;;;17.86;100.00;100577.03;2601114;22;20229;-67
2023/10/28 06:54:29;;;;;;;0.40;0.40;;;;;;;18.43;100.00;100660.38;2599987;22;20261;-66
2023/10/28 06:55:29;;;;;;;0.37;0.30;;;;;;;18.61;100.00;100663.00;2599009;22;20150;-67
2023/10/28 06:56:30;;;;;;;0.47;0.30;;;;;;;18.39;100.00;100647.81;2600271;22;20817;-66
2023/10/28 06:57:31;;;;;;;0.47;0.20;;;;;;;18.12;100.00;100614.44;2601283;22;20240;-67
2023/10/28 06:58:31;;;;;;;1.03;0.40;;;;;;;18.08;100.00;100595.78;2599277;22;20159;-67
2023/10/28 06:59:34;;;;;;;0.53;0.30;;;;;;;18.54;100.00;100665.41;2601497;22;20150;-67
2023/10/28 07:00:36;;;;;;;0.47;0.30;;;;;;;18.60;100.00;100657.84;2602139;22;20180;-67
2023/10/28 07:01:36;;;;;;;1.33;0.47;;;;;;;18.64;100.00;100673.25;2599991;22;20862;-67
2023/10/28 07:02:37;;;;;;;0.50;0.40;;;;;;;18.69;100.00;100680.22;2598107;22;20822;-67
2023/10/28 07:03:37;;;;;;;0.57;0.30;;;;;;;18.36;100.00;100631.94;2600520;22;20631;-67
2023/10/28 07:04:37;;;;;;;0.67;0.47;;;;;;;18.31;100.00;100622.16;2600607;22;20219;-67
2023/10/28 07:05:38;;;;;;;0.57;0.40;;;;;;;18.85;100.00;100676.88;2603471;22;20638;-67
2023/10/28 07:06:41;;;;;;;0.50;0.50;;;;;;;18.14;100.00;100562.97;2602872;22;20147;-67
2023/10/28 07:07:43;;;;;;;0.77;0.30;;;;;;;18.46;100.00;100617.34;2604442;22;20208;-67
2023/10/28 07:08:45;;;;;;;0.70;0.40;;;;;;;18.35;100.00;100636.03;2604063;22;20830;-66
2023/10/28 07:09:46;;;;;;;0.30;0.30;;;;;;;18.94;100.00;100680.34;2603907;22;20372;-66
2023/10/28 07:10:48;;;;;;;0.63;0.30;;;;;;;18.90;100.00;100688.22;2604059;22;20377;-66
2023/10/28 07:11:48;;;;;;;0.40;0.30;;;;;;;18.82;100.00;100664.59;2603458;22;20166;-66
2023/10/28 07:12:49;;;;;;;0.53;0.20;;;;;;;18.96;100.00;100672.22;2602050;22;20372;-66
2023/10/28 07:13:50;;;;;;;0.17;0.17;;;;;;;18.64;100.00;100631.16;2605533;22;20178;-66
2023/10/28 07:14:51;;;;;;;0.33;0.30;;;;;;;19.04;100.00;100676.16;2604285;22;20415;-66
2023/10/28 07:16:02;;;;;;;0.30;0.30;;;;;;;18.98;100.00;100657.69;2600042;22;20156;-67
2023/10/28 07:17:02;;;;;;;0.53;0.40;;;;;;;19.15;100.00;100670.72;2604376;22;20436;-66
2023/10/28 07:18:05;;;;;;;0.40;0.17;;;;;;;19.18;100.00;100666.16;2604218;22;20388;-66
2023/10/28 07:19:05;;;;;;;2.00;0.30;;;;;;;19.25;100.00;100672.13;2605503;22;20157;-67
2023/10/28 07:20:07;;;;;;;1.30;0.27;;;;;;;19.30;100.00;100670.66;2604592;22;20471;-67
2023/10/28 07:21:07;;;;;;;0.30;0.20;;;;;;;19.36;100.00;100685.56;2604619;22;20185;-67
2023/10/28 07:22:08;;;;;;;0.43;0.20;;;;;;;19.36;100.00;100677.91;2604322;22;20384;-66
2023/10/28 07:23:08;;;;;;;0.57;0.30;;;;;;;19.42;100.00;100678.75;2604685;22;20566;-66
2023/10/28 07:24:11;;;;;;;0.30;0.20;;;;;;;18.94;100.00;100604.50;2604601;22;20500;-66
2023/10/28 07:25:11;;;;;;;0.33;0.20;;;;;;;19.55;100.00;100679.16;2616425;22;20138;-67
2023/10/28 07:26:12;;;;;;;0.73;0.40;;;;;;;19.42;100.00;100663.91;2617716;22;20386;-67
2023/10/28 07:27:13;;;;;;;0.40;0.20;;;;;;;19.64;100.00;100692.31;2618530;22;20146;-67
2023/10/28 07:28:14;;;;;;;0.43;0.40;;;;;;;19.24;100.00;100608.78;2617193;22;20383;-67
2023/10/28 07:29:14;;;;;;;0.20;0.20;;;;;;;19.83;100.00;100691.53;2616266;22;20160;-67
2023/10/28 07:30:15;;;;;;;0.50;0.40;;;;;;;19.86;100.00;100686.97;2617987;22;20236;-67
2023/10/28 07:31:16;;;;;;;0.30;0.30;;;;;;;19.88;100.00;100685.19;2617895;22;20525;-66
2023/10/28 07:32:16;;;;;;;0.53;0.33;;;;;;;19.64;100.00;100647.31;2618250;22;20146;-66
2023/10/28 07:33:20;;;;;;;3.33;0.60;;;;;;;19.96;100.00;100691.91;2618987;22;20401;-66
2023/10/28 07:34:21;;;;;;;1.87;0.40;;;;;;;19.69;100.00;100646.59;2617286;22;20501;-67
2023/10/28 07:35:21;;;;;;;0.70;0.50;;;;;;;20.08;100.00;100699.25;2612851;22;20383;-67
2023/10/28 07:36:22;;;;;;;2.07;0.70;;;;;;;20.09;100.00;100705.63;2618169;22;20233;-66
2023/10/28 07:37:23;;;;;;;1.03;0.63;;;;;;;20.09;100.00;100708.44;2617044;22;20150;-67
2023/10/28 07:38:24;;;;;;;0.50;0.50;;;;;;;20.10;100.00;100705.16;2617594;22;20860;-67
2023/10/28 07:39:24;;;;;;;1.73;0.80;;;;;;;19.75;100.00;100665.09;2619628;22;20606;-67
2023/10/28 07:40:25;;;;;;;1.90;0.60;;;;;;;19.97;100.00;100707.56;2619144;22;20158;-67
2023/10/28 07:41:25;;;;;;;0.77;0.50;;;;;;;20.03;100.00;100711.19;2618426;22;20149;-66
2023/10/28 07:42:26;;;;;;;1.97;0.70;;;;;;;20.07;100.00;100711.75;2618108;22;20161;-67
2023/10/28 07:43:27;;;;;;;0.90;0.60;;;;;;;20.05;100.00;100725.53;2618182;22;20177;-66
2023/10/28 07:44:28;;;;;;;1.37;0.63;;;;;;;20.05;100.00;100722.72;2619005;22;20598;-67
2023/10/28 07:45:28;;;;;;;0.90;0.60;;;;;;;19.95;100.00;100724.13;2618469;22;20169;-66
2023/10/28 07:46:30;;;;;;;1.13;0.70;;;;;;;19.96;100.00;100722.84;2618293;22;20146;-67
2023/10/28 07:47:31;;;;;;;3.23;0.70;;;;;;;19.97;100.00;100721.63;2618270;22;20150;-67
2023/10/28 07:48:32;;;;;;;0.70;0.70;;;;;;;19.91;100.00;100717.19;2614794;22;20394;-67
2023/10/28 07:49:33;;;;;;;0.50;0.40;;;;;;;19.83;100.00;100719.66;2614688;22;20899;-67
2023/10/28 07:50:33;;;;;;;1.17;0.77;;;;;;;19.83;100.00;100714.03;2616492;22;20560;-67
2023/10/28 07:51:35;;;;;;;0.60;0.40;;;;;;;19.88;100.00;100721.75;2618232;22;20176;-67
2023/10/28 07:52:35;;;;;;;0.77;0.60;;;;;;;19.86;100.00;100715.84;2618763;22;20603;-67
2023/10/28 07:53:36;;;;;;;2.60;0.57;;;;;;;19.58;100.00;100668.97;2619225;22;20368;-67
2023/10/28 07:54:36;;;;;;;1.13;0.40;;;;;;;19.96;100.00;100720.03;2618428;22;20150;-67
2023/10/28 07:55:38;;;;;;;2.53;0.60;;;;;;;19.96;100.00;100722.09;2617493;22;20432;-67
2023/10/28 07:56:39;;;;;;;0.60;0.50;;;;;;;19.92;100.00;100713.88;2618703;22;20595;-67
2023/10/28 07:57:39;;;;;;;1.13;0.53;;;;;;;19.90;100.00;100713.59;2619456;22;20380;-67
2023/10/28 07:58:40;;;;;;;1.40;0.60;;;;;;;20.07;100.00;100728.63;2618987;22;20146;-66
2023/10/28 07:59:40;;;;;;;0.50;0.50;;;;;;;20.11;100.00;100729.19;2619520;22;20149;-67
2023/10/28 08:00:40;;;;;;;0.60;0.40;;;;;;;19.75;100.00;100681.97;2620048;22;20256;-67
2023/10/28 08:01:41;;;;;;;0.60;0.40;;;;;;;19.47;100.00;100646.34;2619474;22;20153;-66
2023/10/28 08:02:45;;;;;;;2.10;0.60;;;;;;;19.91;100.00;100723.56;2582899;22;20213;-67
2023/10/28 08:03:46;;;;;;;0.60;0.50;;;;;;;20.10;100.00;100743.75;2594222;22;20171;-67
2023/10/28 08:04:46;;;;;;;0.80;0.33;;;;;;;20.11;100.00;100746.06;2594090;22;20373;-67
2023/10/28 08:05:48;;;;;;;0.40;0.40;;;;;;;19.71;100.00;100661.72;2592774;22;20867;-67
2023/10/28 08:06:48;;;;;;;0.50;0.43;;;;;;;20.18;100.00;100730.81;2594045;22;20366;-67
2023/10/28 08:07:50;;;;;;;1.50;0.67;;;;;;;20.20;100.00;100725.44;2593458;22;20181;-68
2023/10/28 08:08:54;;;;;;;0.77;0.40;;;;;;;20.28;100.00;100727.34;2593713;22;20524;-67
2023/10/28 08:09:56;;;;;;;1.60;0.57;;;;;;;20.26;100.00;100726.31;2593610;22;20158;-68
2023/10/28 08:11:00;;;;;;;0.70;0.30;;;;;;;20.35;100.00;100737.38;2594022;22;20593;-68
2023/10/28 08:12:00;;;;;;;0.80;0.50;;;;;;;20.35;100.00;100740.19;2593949;22;20151;-68
2023/10/28 08:13:01;;;;;;;0.83;0.50;;;;;;;20.36;100.00;100734.06;2592687;22;20155;-68
2023/10/28 08:14:03;;;;;;;0.97;0.53;;;;;;;20.30;100.00;100726.81;2593466;22;20175;-68
2023/10/28 08:15:04;;;;;;;1.33;0.43;;;;;;;20.33;100.00;100735.06;2594482;22;20147;-68
2023/10/28 08:16:05;;;;;;;0.90;0.30;;;;;;;20.39;100.00;100741.53;2593562;22;20276;-68
2023/10/28 08:17:05;;;;;;;1.67;0.53;;;;;;;20.28;100.00;100720.94;2595080;22;20230;-68
2023/10/28 08:18:07;;;;;;;0.50;0.30;;;;;;;20.52;100.00;100749.59;2594386;22;20236;-68
2023/10/28 08:19:08;;;;;;;0.40;0.33;;;;;;;20.62;100.00;100743.28;2594255;22;20147;-68
2023/10/28 08:20:08;;;;;;;1.00;0.40;;;;;;;20.71;100.00;100745.91;2594256;22;20405;-68
2023/10/28 08:21:10;;;;;;;1.90;0.43;;;;;;;20.71;100.00;100740.28;2594163;22;20585;-68
2023/10/28 08:22:12;;;;;;;0.90;0.50;;;;;;;20.87;100.00;100744.53;2594742;22;20508;-68
2023/10/28 08:23:12;;;;;;;1.33;0.37;;;;;;;20.90;100.00;100749.97;2594403;22;20169;-68
2023/10/28 08:24:15;;;;;;;0.73;0.50;;;;;;;20.89;100.00;100754.06;2596886;22;20146;-68
2023/10/28 08:25:15;;;;;;;0.50;0.33;;;;;;;20.92;100.00;100752.25;2608162;22;20141;-68
2023/10/28 08:26:18;;;;;;;0.93;0.60;;;;;;;20.73;100.00;100729.28;2606828;22;20146;-68
2023/10/28 08:27:19;;;;;;;0.57;0.50;;;;;;;20.68;100.00;100713.09;2607119;22;20151;-68
2023/10/28 08:28:20;;;;;;;1.00;0.60;;;;;;;20.96;100.00;100753.59;2606584;22;20172;-68
2023/10/28 08:29:20;;;;;;;1.33;0.50;;;;;;;21.03;100.00;100755.94;2607273;22;20229;-68
2023/10/28 08:30:21;;;;;;;1.40;0.67;;;;;;;21.13;100.00;100759.34;2606699;22;20150;-68
2023/10/28 08:31:21;;;;;;;1.03;0.60;;;;;;;21.20;100.00;100754.03;2606243;22;20174;-68
2023/10/28 08:32:23;;;;;;;0.90;0.57;;;;;;;21.31;100.00;100758.94;2607826;22;20645;-68
2023/10/28 08:33:24;;;;;;;1.03;0.63;;;;;;;21.40;100.00;100747.47;2606985;22;20170;-68
2023/10/28 08:34:25;;;;;;;1.20;0.77;;;;;;;21.20;100.00;100713.78;2607830;22;20157;-68
2023/10/28 08:35:28;;;;;;;1.30;0.87;;;;;;;21.45;100.00;100747.50;2607163;22;20150;-68
2023/10/28 08:36:29;;;;;;;2.07;0.90;;;;;;;21.47;100.00;100739.31;2607552;22;20162;-68
2023/10/28 08:37:31;;;;;;;2.03;0.70;;;;;;;21.50;100.00;100746.00;2607721;22;20710;-68
2023/10/28 08:38:32;;;;;;;1.20;0.73;;;;;;;21.26;100.00;100701.28;2607124;22;20155;-68
2023/10/28 08:39:32;;;;;;;1.27;0.70;;;;;;;21.53;100.00;100734.47;2593179;22;20687;-68
2023/10/28 08:40:33;;;;;;;1.33;0.70;;;;;;;21.64;100.00;100742.25;2593032;22;20238;-68
2023/10/28 08:41:34;;;;;;;1.30;0.70;;;;;;;21.50;100.00;100720.63;2605927;22;20237;-68
2023/10/28 08:42:35;;;;;;;1.63;0.47;;;;;;;21.72;100.00;100749.75;2606840;22;20150;-68
2023/10/28 08:43:35;;;;;;;0.30;0.30;;;;;;;21.34;100.00;100688.25;2605607;22;20178;-68
2023/10/28 08:44:37;;;;;;;0.73;0.20;;;;;;;21.71;100.00;100747.41;2605908;22;20200;-68
2023/10/28 08:45:40;;;;;;;0.60;0.37;;;;;;;21.65;100.00;100746.59;2605793;22;20876;-68
2023/10/28 08:46:42;;;;;;;2.20;0.60;;;;;;;21.70;100.00;100749.47;2606008;22;20457;-68
2023/10/28 08:47:44;;;;;;;1.30;0.20;;;;;;;21.67;100.00;100744.03;2606479;22;20150;-68
2023/10/28 08:48:45;;;;;;;3.80;0.43;;;;;;;21.74;100.00;100747.16;2605358;22;20620;-68
2023/10/28 08:49:48;;;;;;;2.13;0.40;;;;;;;21.77;100.00;100742.56;2606387;22;20181;-68
2023/10/28 08:50:53;;;;;;;0.60;0.30;;;;;;;21.79;100.00;100740.78;2606126;22;20143;-68
2023/10/28 08:51:58;;;;;;;0.33;0.20;;;;;;;21.82;100.00;100747.47;2605841;22;20429;-68
2023/10/28 08:53:03;;;;;;;2.23;0.40;;;;;;;21.72;100.00;100720.75;2606463;22;20150;-68
2023/10/28 08:54:04;;;;;;;0.80;0.40;;;;;;;21.92;100.00;100755.22;2605231;22;20150;-68
2023/10/28 08:55:07;;;;;;;0.93;0.30;;;;;;;21.96;100.00;100750.06;2606496;22;20376;-67
2023/10/28 08:56:07;;;;;;;2.60;0.43;;;;;;;21.69;100.00;100699.22;2604930;22;20649;-68
2023/10/28 08:57:08;;;;;;;0.77;0.30;;;;;;;21.86;100.00;100740.28;2606888;22;20150;-68
2023/10/28 08:58:09;;;;;;;0.83;0.40;;;;;;;21.96;100.00;100746.50;2605799;22;20150;-68
2023/10/28 08:59:10;;;;;;;2.27;0.20;;;;;;;21.91;100.00;100747.25;2607269;22;20151;-67
2023/10/28 09:00:14;;;;;;;0.83;0.43;;;;;;;21.91;100.00;100750.06;2606809;22;20185;-67
2023/10/28 09:01:15;;;;;;;0.50;0.30;;;;;;;21.91;100.00;100750.06;2607030;22;20154;-68
2023/10/28 09:02:19;;;;;;;0.50;0.33;;;;;;;21.97;100.00;100753.69;2606604;22;20147;-67
2023/10/28 09:03:22;;;;;;;0.53;0.30;;;;;;;21.67;100.00;100699.69;2607488;22;20284;-67
2023/10/28 09:04:23;;;;;;;0.50;0.30;;;;;;;21.99;100.00;100763.19;2606227;22;20151;-67
2023/10/28 09:05:24;;;;;;;0.83;0.47;;;;;;;22.01;100.00;100760.63;2607408;22;20505;-67
2023/10/28 09:06:24;;;;;;;0.30;0.30;;;;;;;21.56;100.00;100684.75;2607917;22;20205;-67
2023/10/28 09:07:25;;;;;;;0.60;0.40;;;;;;;21.95;100.00;100730.84;2608191;22;20154;-68
2023/10/28 09:08:26;;;;;;;0.80;0.50;;;;;;;22.08;100.00;100759.34;2607421;22;20237;-67
2023/10/28 09:09:27;;;;;;;1.40;0.53;;;;;;;21.75;100.00;100697.94;2608247;22;20178;-67
2023/10/28 09:10:27;;;;;;;0.97;0.40;;;;;;;22.06;100.00;100751.41;2607473;22;20166;-67
2023/10/28 09:11:28;;;;;;;1.13;0.60;;;;;;;22.07;100.00;100746.53;2608171;22;20502;-68
2023/10/28 09:12:28;;;;;;;3.00;0.60;;;;;;;22.01;100.00;100754.97;2594101;22;20165;-67
2023/10/28 09:13:30;;;;;;;1.63;0.60;;;;;;;21.67;100.00;100707.38;2594331;22;20506;-67
2023/10/28 09:14:31;;;;;;;1.17;0.60;;;;;;;21.33;100.00;100657.75;2606917;22;20233;-67
2023/10/28 09:15:31;;;;;;;1.13;0.70;;;;;;;21.90;100.00;100748.53;2607415;22;20621;-67
2023/10/28 09:16:33;;;;;;;1.97;0.40;;;;;;;21.84;100.00;100751.31;2608064;22;20635;-67
2023/10/28 09:17:34;;;;;;;0.53;0.40;;;;;;;21.40;100.00;100685.47;2608251;22;20156;-67
2023/10/28 09:18:39;;;;;;;1.70;0.47;;;;;;;21.40;100.00;100697.50;2607312;22;20377;-67
2023/10/28 09:19:39;;;;;;;1.67;0.50;;;;;;;21.68;100.00;100751.22;2607967;22;20203;-68
2023/10/28 09:20:41;;;;;;;1.10;0.50;;;;;;;21.62;100.00;100739.91;2607732;22;20372;-68
2023/10/28 09:21:41;;;;;;;1.03;0.37;;;;;;;21.39;100.00;100710.06;2608090;22;20150;-68
2023/10/28 09:22:43;;;;;;;0.70;0.33;;;;;;;21.51;100.00;100739.88;2607965;22;20430;-68
2023/10/28 09:23:43;;;;;;;0.47;0.30;;;;;;;21.46;100.00;100720.88;2607154;22;20178;-67
2023/10/28 09:24:47;;;;;;;0.20;0.20;;;;;;;21.58;100.00;100736.56;2605890;22;20435;-67
2023/10/28 09:25:47;;;;;;;0.50;0.20;;;;;;;21.46;100.00;100718.06;2607155;22;20200;-67
2023/10/28 09:26:50;;;;;;;0.93;0.20;;;;;;;21.64;100.00;100745.81;2608001;22;20196;-68
2023/10/28 09:27:51;;;;;;;0.50;0.27;;;;;;;21.65;100.00;100732.50;2607520;22;20181;-68
2023/10/28 09:28:51;;;;;;;1.13;0.20;;;;;;;21.70;100.00;100741.00;2607805;22;20146;-68
2023/10/28 09:30:03;;;;;;;3.27;0.30;;;;;;;21.74;100.00;100741.53;2594412;22;20170;-68
2023/10/28 09:31:06;;;;;;;0.87;0.33;;;;;;;21.05;100.00;100642.75;2597230;22;20135;-68
2023/10/28 09:32:08;;;;;;;0.73;0.40;;;;;;;21.75;100.00;100737.44;2608031;22;20151;-68
2023/10/28 09:33:09;;;;;;;0.27;0.27;;;;;;;21.72;100.00;100718.72;2608172;22;20229;-68
2023/10/28 09:34:11;;;;;;;1.23;0.40;;;;;;;21.86;100.00;100734.66;2607236;22;20150;-68
2023/10/28 09:35:13;;;;;;;0.37;0.30;;;;;;;21.89;100.00;100736.47;2606966;22;20155;-68
2023/10/28 09:36:13;;;;;;;0.40;0.30;;;;;;;21.81;100.00;100721.28;2607293;22;20221;-68
2023/10/28 09:37:15;;;;;;;0.50;0.23;;;;;;;21.96;100.00;100738.03;2607928;22;20149;-67
2023/10/28 09:38:15;;;;;;;1.73;0.57;;;;;;;21.66;100.00;100672.78;2607173;22;20226;-67
2023/10/28 09:39:16;;;;;;;1.37;0.40;;;;;;;21.85;100.00;100699.25;2607486;22;20150;-68
2023/10/28 09:40:17;;;;;;;0.50;0.30;;;;;;;22.05;100.00;100729.34;2607332;22;20630;-68
2023/10/28 09:41:19;;;;;;;0.50;0.30;;;;;;;22.07;100.00;100733.22;2607961;22;20594;-67
2023/10/28 09:42:22;;;;;;;0.33;0.30;;;;;;;22.11;100.00;100724.50;2607717;22;20151;-68
2023/10/28 09:43:23;;;;;;;0.63;0.30;;;;;;;22.01;100.00;100726.00;2608024;22;20178;-67
2023/10/28 09:44:25;;;;;;;2.83;0.50;;;;;;;22.00;100.00;100725.22;2606980;22;20154;-68
2023/10/28 09:45:26;;;;;;;0.73;0.30;;;;;;;21.71;100.00;100677.69;2606548;22;20150;-68
2023/10/28 09:46:29;;;;;;;0.30;0.30;;;;;;;22.06;100.00;100719.59;2607649;22;20189;-68
2023/10/28 09:47:40;;;;;;;0.63;0.30;;;;;;;21.61;100.00;100650.19;2607937;22;20150;-68
2023/10/28 09:48:45;;;;;;;1.03;0.50;;;;;;;22.09;100.00;100725.00;2607170;22;20130;-68
2023/10/28 09:49:50;;;;;;;0.60;0.30;;;;;;;22.14;100.00;100710.13;2594436;22;20600;-67
2023/10/28 09:50:52;;;;;;;0.40;0.30;;;;;;;22.15;100.00;100717.31;2582486;22;20159;-68
2023/10/28 09:51:57;;;;;;;0.70;0.37;;;;;;;22.18;100.00;100719.13;2594705;22;20147;-68
2023/10/28 09:52:58;;;;;;;0.33;0.33;;;;;;;22.20;100.00;100722.19;2607358;22;20162;-68
2023/10/28 09:54:11;;;;;;;2.30;0.20;;;;;;;22.22;100.00;100716.78;2607958;22;20545;-68
2023/10/28 09:55:15;;;;;;;0.30;0.30;;;;;;;22.27;100.00;100713.22;2607256;22;20139;-68
2023/10/28 09:56:17;;;;;;;3.17;0.30;;;;;;;22.26;100.00;100703.22;2606730;22;20229;-67
2023/10/28 09:57:17;;;;;;;0.20;0.20;;;;;;;21.86;100.00;100647.19;2607876;22;20157;-68
2023/10/28 09:58:21;;;;;;;0.40;0.20;;;;;;;22.42;100.00;100715.81;2607114;22;20174;-68
2023/10/28 09:59:25;;;;;;;0.30;0.17;;;;;;;22.40;100.00;100707.06;2607589;22;20176;-68
2023/10/28 10:00:27;;;;;;;0.30;0.20;;;;;;;22.50;100.00;100716.88;2607571;22;20599;-68
2023/10/28 10:01:40;;;;;;;0.80;0.30;;;;;;;22.56;100.00;100714.84;2607838;22;20600;-68
2023/10/28 10:02:54;;;;;;;0.40;0.30;;;;;;;22.61;100.00;100714.09;2607748;22;20204;-68
2023/10/28 10:04:36;;;;;;;1.07;0.30;;;;;;;22.61;100.00;100711.25;2607783;22;20227;-68
2023/10/28 10:05:42;;;;;;;1.83;0.40;;;;;;;22.65;100.00;100712.53;2586169;22;20182;-68
2023/10/28 10:06:42;;;;;;;0.77;0.30;;;;;;;22.67;100.00;100712.03;2606706;22;20142;-68
2023/10/28 10:07:44;;;;;;;0.87;0.30;;;;;;;22.69;100.00;100706.63;2607141;22;20174;-68
2023/10/28 10:08:52;;;;;;;0.70;0.33;;;;;;;22.72;100.00;100700.72;2607277;22;20154;-68
2023/10/28 10:09:53;;;;;;;0.87;0.40;;;;;;;22.75;100.00;100708.16;2594295;22;20181;-68
2023/10/28 10:10:57;;;;;;;0.43;0.40;;;;;;;22.79;100.00;100699.44;2594228;22;20600;-68
2023/10/28 10:11:58;;;;;;;0.53;0.40;;;;;;;22.81;100.00;100702.50;2606938;22;20162;-68
2023/10/28 10:13:03;;;;;;;0.63;0.30;;;;;;;22.77;100.00;100693.53;2607187;22;20197;-68
2023/10/28 10:14:11;;;;;;;0.63;0.37;;;;;;;22.81;100.00;100696.84;2607705;22;20150;-68
2023/10/28 10:15:19;;;;;;;1.03;0.60;;;;;;;22.83;100.00;100699.94;2608005;22;20219;-68
2023/10/28 10:16:48;;;;;;;0.30;0.30;;;;;;;22.81;100.00;100694.03;2606427;22;20637;-68
2023/10/28 10:18:21;;;;;;;0.70;0.30;;;;;;;22.87;100.00;100694.81;2593828;22;20218;-68
2023/10/28 10:19:34;;;;;;;1.43;0.50;;;;;;;22.89;100.00;100700.72;2584047;22;20159;-68
2023/10/28 10:20:35;;;;;;;1.97;0.60;;;;;;;22.63;100.00;100658.59;2583712;22;20183;-68
2023/10/28 10:21:35;;;;;;;2.63;0.50;;;;;;;22.92;100.00;100689.13;2594041;22;20151;-68
2023/10/28 10:22:38;;;;;;;1.10;0.50;;;;;;;22.99;100.00;100696.31;2604591;22;20187;-68
2023/10/28 10:23:43;;;;;;;1.00;0.43;;;;;;;23.01;100.00;100696.56;2607758;22;20671;-68
2023/10/28 10:24:50;;;;;;;1.73;0.50;;;;;;;23.05;100.00;100694.25;2607306;22;20201;-68
2023/10/28 10:25:54;;;;;;;1.03;0.40;;;;;;;22.52;100.00;100616.22;2607042;22;20147;-68
2023/10/28 10:26:56;;;;;;;1.20;0.50;;;;;;;23.08;100.00;100699.63;2592701;22;20151;-68
2023/10/28 10:28:06;;;;;;;2.10;0.50;;;;;;;23.02;100.00;100687.56;2593758;22;20189;-68
2023/10/28 10:29:08;;;;;;;0.50;0.37;;;;;;;23.10;100.00;100701.97;2607739;22;20134;-67
2023/10/28 10:30:10;;;;;;;1.73;0.53;;;;;;;22.84;100.00;100661.91;2607736;22;20154;-67
2023/10/28 10:31:10;;;;;;;1.50;0.30;;;;;;;23.13;100.00;100698.09;2607889;22;20150;-67
2023/10/28 10:32:17;;;;;;;1.37;0.40;;;;;;;22.89;100.00;100661.16;2607676;22;20158;-68
2023/10/28 10:33:25;;;;;;;0.50;0.30;;;;;;;22.41;100.00;100601.34;2608037;22;20150;-68
2023/10/28 10:34:34;;;;;;;0.30;0.30;;;;;;;23.05;100.00;100700.69;2607533;22;20632;-68
2023/10/28 10:35:38;;;;;;;1.23;0.40;;;;;;;23.11;100.00;100700.66;2607130;22;20150;-67
2023/10/28 10:36:41;;;;;;;0.50;0.30;;;;;;;23.04;100.00;100684.25;2606473;22;20146;-68
2023/10/28 10:37:41;;;;;;;1.20;0.37;;;;;;;23.17;100.00;100701.41;2606360;22;20627;-67
2023/10/28 10:38:41;;;;;;;0.57;0.47;;;;;;;23.23;100.00;100705.06;2606692;22;20578;-67
2023/10/28 10:39:43;;;;;;;1.30;0.60;;;;;;;23.30;100.00;100705.28;2594089;22;20159;-68
2023/10/28 10:40:46;;;;;;;0.50;0.40;;;;;;;23.41;100.00;100702.44;2593862;22;20166;-67
2023/10/28 10:41:51;;;;;;;0.60;0.30;;;;;;;23.47;100.00;100703.19;2607540;22;20142;-67
2023/10/28 10:42:51;;;;;;;0.70;0.30;;;;;;;23.51;100.00;100703.69;2607620;22;20139;-67
2023/10/28 10:43:52;;;;;;;0.30;0.30;;;;;;;23.50;100.00;100682.31;2607650;22;20201;-68
2023/10/28 10:44:52;;;;;;;0.20;0.20;;;;;;;23.30;100.00;100637.44;2607722;22;20142;-67
2023/10/28 10:45:54;;;;;;;0.40;0.37;;;;;;;23.41;100.00;100640.22;2606918;22;20178;-67
2023/10/28 10:46:57;;;;;;;0.60;0.20;;;;;;;23.78;100.00;100685.03;2607656;22;20146;-67
2023/10/28 10:47:58;;;;;;;0.70;0.30;;;;;;;23.84;100.00;100695.06;2605548;22;20680;-68
2023/10/28 10:48:59;;;;;;;2.67;0.47;;;;;;;23.94;100.00;100699.16;2607554;22;20150;-67
2023/10/28 10:49:59;;;;;;;0.30;0.30;;;;;;;24.02;100.00;100693.69;2607661;22;20150;-67
2023/10/28 10:51:00;;;;;;;1.47;0.50;;;;;;;24.08;100.00;100694.44;2606843;22;20174;-67
2023/10/28 10:52:03;;;;;;;0.87;0.50;;;;;;;24.13;100.00;100699.28;2594099;22;20537;-67
2023/10/28 10:53:03;;;;;;;0.60;0.30;;;;;;;23.89;100.00;100657.50;2594391;22;20221;-67
2023/10/28 10:54:04;;;;;;;0.23;0.23;;;;;;;24.24;100.00;100694.34;2607697;22;20176;-68
2023/10/28 10:55:05;;;;;;;1.80;0.53;;;;;;;24.25;100.00;100687.38;2607636;22;20178;-67
2023/10/28 10:56:06;;;;;;;0.47;0.37;;;;;;;24.32;100.00;100683.22;2607039;22;20151;-68
2023/10/28 10:57:07;;;;;;;1.00;0.40;;;;;;;24.23;100.00;100663.72;2607986;22;20151;-68
2023/10/28 10:58:08;;;;;;;0.50;0.30;;;;;;;24.45;100.00;100684.16;2606050;22;20851;-68
2023/10/28 10:59:09;;;;;;;0.60;0.40;;;;;;;24.53;100.00;100692.84;2606829;22;20175;-68
2023/10/28 11:00:11;;;;;;;1.30;0.30;;;;;;;24.44;100.00;100670.50;2607228;22;20152;-67
2023/10/28 11:01:12;;;;;;;0.70;0.37;;;;;;;24.68;100.00;100685.53;2607489;22;20150;-67
2023/10/28 11:02:13;;;;;;;0.80;0.40;;;;;;;24.53;100.00;100656.78;2607321;22;20155;-67
2023/10/28 11:03:14;;;;;;;0.90;0.30;;;;;;;24.82;100.00;100690.03;2607832;22;20606;-67
2023/10/28 11:04:15;;;;;;;0.40;0.30;;;;;;;24.87;100.00;100675.03;2607312;22;20525;-68
2023/10/28 11:05:17;;;;;;;0.83;0.30;;;;;;;24.94;100.00;100685.81;2607090;22;20150;-67
2023/10/28 11:06:19;;;;;;;0.67;0.30;;;;;;;24.96;100.00;100685.25;2607195;22;20150;-67
2023/10/28 11:07:20;;;;;;;0.27;0.20;;;;;;;25.04;100.00;100684.19;2607761;22;20563;-67
2023/10/28 11:08:20;;;;;;;1.60;0.43;;;;;;;25.10;100.00;100689.78;2606145;22;20151;-68
2023/10/28 11:09:21;;;;;;;0.63;0.40;;;;;;;25.17;100.00;100678.59;2606731;22;20166;-67